createdAt,value
2018-06-04T00:01:31.148Z,101529.88
2018-06-04T00:04:00.291Z,101527.24
2018-06-04T00:06:29.138Z,101527.00
2018-06-04T00:08:58.031Z,101527.10
2018-06-04T00:11:27.230Z,101528.36
2018-06-04T00:13:56.088Z,101524.59
2018-06-04T00:16:25.773Z,101527.42
2018-06-04T00:18:55.078Z,101520.34
2018-06-04T00:21:24.168Z,101510.26
2018-06-04T00:23:53.024Z,101512.06
2018-06-04T00:26:22.677Z,101511.52
2018-06-04T00:28:51.983Z,101509.91
2018-06-04T00:31:21.651Z,101510.70
2018-06-04T00:33:50.507Z,101513.54
2018-06-04T00:36:19.971Z,101507.02
2018-06-04T00:38:49.483Z,101511.62
2018-06-04T00:41:18.605Z,101503.95
2018-06-04T00:43:47.433Z,101504.38
2018-06-04T00:46:16.669Z,101506.88
2018-06-04T00:48:45.828Z,101501.55
2018-06-04T00:51:14.992Z,101496.98
2018-06-04T00:53:44.212Z,101494.55
2018-06-04T00:56:20.898Z,101490.53
2018-06-04T00:58:50.412Z,101490.53
2018-06-04T01:01:20.042Z,101486.67
2018-06-04T01:03:49.679Z,101493.52
2018-06-04T01:06:18.777Z,101491.16
2018-06-04T01:08:47.624Z,101491.16
2018-06-04T01:11:17.133Z,101488.86
2018-06-04T01:13:45.940Z,101495.27
2018-06-04T01:16:15.031Z,101487.39
2018-06-04T01:18:44.659Z,101487.29
2018-06-04T01:21:14.040Z,101492.23
2018-06-04T01:23:43.154Z,101493.91
2018-06-04T01:26:12.303Z,101491.85
2018-06-04T01:28:41.515Z,101490.82
2018-06-04T01:31:11.594Z,101490.58
2018-06-04T01:33:40.820Z,101489.80
2018-06-04T01:36:09.660Z,101487.74
2018-06-04T01:38:38.478Z,101490.82
2018-06-04T01:41:07.540Z,101486.03
2018-06-04T01:43:36.859Z,101486.17
2018-06-04T01:46:06.303Z,101481.13
2018-06-04T01:48:35.694Z,101483.29
2018-06-04T01:51:05.149Z,101484.11
2018-06-04T01:53:34.024Z,101477.13
2018-06-04T01:56:03.653Z,101479.17
2018-06-04T01:58:32.979Z,101480.75
2018-06-04T02:01:02.401Z,101483.18
2018-06-04T02:03:31.771Z,101484.21
2018-06-04T02:06:01.268Z,101480.09
2018-06-04T02:08:30.412Z,101480.00
2018-06-04T02:10:59.819Z,101472.80
2018-06-04T02:13:29.585Z,101481.27
2018-06-04T02:15:59.447Z,101477.37
2018-06-04T02:18:28.259Z,101483.33
2018-06-04T02:20:57.124Z,101480.01
2018-06-04T02:23:26.030Z,101481.37
2018-06-04T02:25:56.443Z,101472.61
2018-06-04T02:28:25.428Z,101466.78
2018-06-04T02:30:54.264Z,101461.84
2018-06-04T02:33:23.370Z,101463.70
2018-06-04T02:35:52.371Z,101465.07
2018-06-04T02:38:21.228Z,101461.20
2018-06-04T02:40:50.625Z,101461.65
2018-06-04T02:43:19.871Z,101457.43
2018-06-04T02:45:48.895Z,101453.08
2018-06-04T02:48:17.718Z,101444.65
2018-06-04T02:50:47.389Z,101452.73
2018-06-04T02:53:16.492Z,101444.27
2018-06-04T02:55:45.326Z,101455.00
2018-06-04T02:58:14.537Z,101455.68
2018-06-04T03:00:43.709Z,101446.29
2018-06-04T03:03:12.873Z,101448.58
2018-06-04T03:05:42.469Z,101444.37
2018-06-04T03:08:11.339Z,101444.13
2018-06-04T03:10:40.469Z,101444.33
2018-06-04T03:13:09.888Z,101439.53
2018-06-04T03:15:38.760Z,101440.28
2018-06-04T03:18:07.607Z,101434.02
2018-06-04T03:20:36.515Z,101435.24
2018-06-04T03:23:05.632Z,101437.30
2018-06-04T03:25:34.828Z,101434.80
2018-06-04T03:28:03.719Z,101436.06
2018-06-04T03:30:32.581Z,101431.33
2018-06-04T03:35:56.517Z,101440.27
2018-06-04T03:38:25.922Z,101440.13
2018-06-04T03:40:55.737Z,101445.63
2018-06-04T03:43:24.610Z,101441.77
2018-06-04T03:45:54.406Z,101446.36
2018-06-04T03:48:23.374Z,101440.78
2018-06-04T03:50:52.539Z,101442.15
2018-06-04T03:53:21.932Z,101442.97
2018-06-04T03:55:51.272Z,101439.95
2018-06-04T03:58:21.123Z,101439.75
2018-06-04T04:00:50.762Z,101446.59
2018-06-04T04:03:20.096Z,101435.64
2018-06-04T04:05:49.119Z,101444.58
2018-06-04T04:08:18.410Z,101445.27
2018-06-04T04:10:47.729Z,101447.56
2018-06-04T04:13:17.119Z,101445.03
2018-06-04T04:15:46.001Z,101451.58
2018-06-04T04:18:14.853Z,101444.83
2018-06-04T04:20:44.358Z,101447.95
2018-06-04T04:23:13.436Z,101451.97
2018-06-04T04:25:42.751Z,101448.41
2018-06-04T04:28:11.958Z,101453.78
2018-06-04T04:30:41.088Z,101458.14
2018-06-04T04:33:10.817Z,101454.50
2018-06-04T04:35:40.080Z,101455.30
2018-06-04T04:38:09.043Z,101449.02
2018-06-04T04:40:38.003Z,101448.20
2018-06-04T04:43:07.150Z,101446.69
2018-06-04T04:45:36.317Z,101454.56
2018-06-04T04:48:05.279Z,101447.13
2018-06-04T04:50:34.868Z,101445.66
2018-06-04T04:53:04.535Z,101445.02
2018-06-04T04:55:33.378Z,101442.38
2018-06-04T04:58:02.787Z,101443.98
2018-06-04T05:00:32.260Z,101441.45
2018-06-04T05:03:03.124Z,101435.62
2018-06-04T05:05:32.819Z,101434.53
2018-06-04T05:08:01.678Z,101429.61
2018-06-04T05:10:31.170Z,101434.19
2018-06-04T05:13:00.012Z,101431.11
2018-06-04T05:15:29.431Z,101431.22
2018-06-04T05:17:58.618Z,101435.09
2018-06-04T05:20:27.796Z,101428.95
2018-06-04T05:22:57.120Z,101432.72
2018-06-04T05:25:26.430Z,101425.87
2018-06-04T05:27:55.584Z,101428.85
2018-06-04T05:30:24.788Z,101429.64
2018-06-04T05:32:53.984Z,101428.41
2018-06-04T05:35:23.565Z,101424.73
2018-06-04T05:37:52.988Z,101421.00
2018-06-04T05:40:22.557Z,101422.82
2018-06-04T05:48:44.244Z,101436.66
2018-06-04T05:51:13.671Z,101441.46
2018-06-04T05:53:42.842Z,101436.22
2018-06-04T05:56:12.089Z,101436.59
2018-06-04T05:58:41.128Z,101439.78
2018-06-04T06:01:09.971Z,101438.64
2018-06-04T06:03:39.599Z,101441.17
2018-06-04T06:06:08.794Z,101441.41
2018-06-04T06:08:38.475Z,101436.72
2018-06-04T06:11:07.383Z,101432.50
2018-06-04T06:13:36.201Z,101432.52
2018-06-04T06:16:05.383Z,101430.47
2018-06-04T06:18:34.259Z,101423.27
2018-06-04T06:21:03.745Z,101431.62
2018-06-04T06:23:32.919Z,101423.39
2018-06-04T06:26:02.112Z,101419.28
2018-06-04T06:28:31.213Z,101416.98
2018-06-04T06:31:00.050Z,101414.94
2018-06-04T06:33:29.164Z,101415.86
2018-06-04T06:35:58.617Z,101421.34
2018-06-04T06:38:27.972Z,101419.05
2018-06-04T06:40:56.800Z,101420.58
2018-06-04T06:43:25.729Z,101419.54
2018-06-04T06:45:54.706Z,101422.64
2018-06-04T06:48:23.545Z,101417.74
2018-06-04T06:50:53.095Z,101425.73
2018-06-04T06:53:22.531Z,101426.18
2018-06-04T06:55:51.940Z,101431.66
2018-06-04T06:58:21.220Z,101426.66
2018-06-04T07:00:50.064Z,101425.84
2018-06-04T07:03:19.166Z,101433.95
2018-06-04T07:05:48.425Z,101425.17
2018-06-04T07:08:17.267Z,101423.23
2018-06-04T07:10:46.753Z,101423.91
2018-06-04T07:13:16.183Z,101420.92
2018-06-04T07:15:45.804Z,101416.58
2018-06-04T07:18:14.647Z,101420.34
2018-06-04T07:20:43.473Z,101426.19
2018-06-04T07:23:12.340Z,101425.84
2018-06-04T07:25:41.771Z,101428.59
2018-06-04T07:28:10.626Z,101422.05
2018-06-04T07:30:40.022Z,101421.47
2018-06-04T07:33:08.865Z,101421.11
2018-06-04T07:35:37.699Z,101419.74
2018-06-04T07:38:07.015Z,101418.92
2018-06-04T07:40:36.458Z,101420.64
2018-06-04T07:43:05.701Z,101419.03
2018-06-04T07:45:34.844Z,101421.10
2018-06-04T07:48:03.780Z,101420.52
2018-06-04T07:50:32.599Z,101419.33
2018-06-04T07:53:01.731Z,101420.57
2018-06-04T07:55:30.833Z,101421.58
2018-06-04T07:57:59.871Z,101416.75
2018-06-04T08:00:29.058Z,101411.71
2018-06-04T08:02:58.142Z,101411.36
2018-06-04T08:05:27.643Z,101413.14
2018-06-04T08:07:56.944Z,101415.08
2018-06-04T08:10:26.003Z,101417.02
2018-06-04T08:12:55.126Z,101415.95
2018-06-04T08:15:24.435Z,101414.69
2018-06-04T08:17:53.796Z,101409.16
2018-06-04T08:20:22.897Z,101397.44
2018-06-04T08:23:03.738Z,101403.48
2018-06-04T08:25:32.560Z,101396.34
2018-06-04T08:28:02.287Z,101393.17
2018-06-04T08:30:31.157Z,101386.72
2018-06-04T08:33:00.261Z,101388.26
2018-06-04T08:35:29.080Z,101393.63
2018-06-04T08:37:58.953Z,101394.71
2018-06-04T08:40:28.065Z,101395.14
2018-06-04T08:42:57.176Z,101393.49
2018-06-04T08:45:26.342Z,101396.11
2018-06-04T08:47:55.735Z,101395.98
2018-06-04T08:50:25.108Z,101397.22
2018-06-04T08:52:54.452Z,101397.36
2018-06-04T08:55:23.469Z,101392.84
2018-06-04T08:57:52.552Z,101389.50
2018-06-04T09:00:21.434Z,101384.79
2018-06-04T09:02:50.293Z,101381.08
2018-06-04T09:05:19.424Z,101386.52
2018-06-04T09:07:48.745Z,101390.09
2018-06-04T09:10:17.809Z,101393.23
2018-06-04T09:12:46.922Z,101389.99
2018-06-04T09:15:15.769Z,101395.69
2018-06-04T09:17:45.230Z,101391.55
2018-06-04T09:20:14.157Z,101395.87
2018-06-04T09:22:43.297Z,101392.85
2018-06-04T09:25:12.433Z,101392.84
2018-06-04T09:27:41.390Z,101394.30
2018-06-04T09:30:10.515Z,101393.06
2018-06-04T09:32:39.356Z,101396.02
2018-06-04T09:35:08.837Z,101390.36
2018-06-04T09:37:37.734Z,101392.14
2018-06-04T09:40:07.212Z,101394.62
2018-06-04T09:42:36.214Z,101392.73
2018-06-04T09:45:05.016Z,101386.13
2018-06-04T09:47:34.504Z,101392.59
2018-06-04T09:50:03.265Z,101397.59
2018-06-04T09:52:32.319Z,101399.55
2018-06-04T09:55:01.640Z,101403.48
2018-06-04T09:57:30.385Z,101398.20
2018-06-04T09:59:59.200Z,101391.22
2018-06-04T10:02:28.075Z,101391.36
2018-06-04T10:04:57.405Z,101396.75
2018-06-04T10:07:26.523Z,101397.09
2018-06-04T10:09:55.405Z,101402.98
2018-06-04T10:12:24.479Z,101399.48
2018-06-04T10:14:53.267Z,101401.88
2018-06-04T10:17:22.067Z,101399.77
2018-06-04T10:19:51.441Z,101399.81
2018-06-04T10:22:20.647Z,101404.14
2018-06-04T10:24:49.441Z,101403.99
2018-06-04T10:27:18.231Z,101407.72
2018-06-04T10:29:47.354Z,101405.47
2018-06-04T10:32:16.113Z,101395.81
2018-06-04T10:34:44.964Z,101399.87
2018-06-04T10:37:14.557Z,101400.09
2018-06-04T10:39:43.411Z,101404.69
2018-06-04T10:42:12.889Z,101400.46
2018-06-04T10:44:42.028Z,101401.92
2018-06-04T10:47:11.540Z,101396.34
2018-06-04T10:49:40.547Z,101399.45
2018-06-04T10:52:09.364Z,101391.86
2018-06-04T10:54:38.622Z,101401.66
2018-06-04T10:57:07.484Z,101396.64
2018-06-04T10:59:36.694Z,101393.38
2018-06-04T11:02:06.999Z,101397.80
2018-06-04T11:04:36.156Z,101390.72
2018-06-04T11:07:05.351Z,101384.89
2018-06-04T11:09:35.112Z,101394.05
2018-06-04T11:12:04.559Z,101380.92
2018-06-04T11:14:33.688Z,101378.98
2018-06-04T11:17:02.578Z,101377.05
2018-06-04T11:19:31.394Z,101376.76
2018-06-04T11:22:00.219Z,101371.58
2018-06-04T11:24:29.121Z,101373.70
2018-06-04T11:26:58.225Z,101369.27
2018-06-04T11:29:27.297Z,101375.48
2018-06-04T11:31:56.447Z,101373.03
2018-06-04T11:34:25.599Z,101373.03
2018-06-04T11:36:55.017Z,101379.78
2018-06-04T11:39:23.866Z,101382.91
2018-06-04T11:41:53.250Z,101381.88
2018-06-04T11:44:22.406Z,101378.44
2018-06-04T11:46:51.833Z,101384.91
2018-06-04T11:49:20.673Z,101385.83
2018-06-04T11:51:50.331Z,101390.42
2018-06-04T11:54:19.793Z,101387.81
2018-06-04T11:56:49.004Z,101383.83
2018-06-04T11:59:18.611Z,101379.84
2018-06-04T12:01:47.988Z,101382.23
2018-06-04T12:04:16.815Z,101384.02
2018-06-04T12:06:45.749Z,101384.02
2018-06-04T12:09:14.575Z,101381.86
2018-06-04T12:11:43.419Z,101382.57
2018-06-04T12:14:12.900Z,101387.05
2018-06-04T12:16:41.963Z,101381.53
2018-06-04T12:19:11.444Z,101378.44
2018-06-04T12:21:40.265Z,101381.34
2018-06-04T12:24:09.661Z,101380.20
2018-06-04T12:26:38.553Z,101382.64
2018-06-04T12:29:07.950Z,101375.59
2018-06-04T12:31:37.198Z,101372.65
2018-06-04T12:34:06.011Z,101372.50
2018-06-04T12:36:35.144Z,101370.30
2018-06-04T12:39:06.909Z,101373.06
2018-06-04T12:41:36.203Z,101372.91
2018-06-04T12:44:05.286Z,101372.13
2018-06-04T12:46:35.104Z,101374.17
2018-06-04T12:49:04.206Z,101380.06
2018-06-04T12:51:33.321Z,101377.00
2018-06-04T12:54:02.295Z,101382.72
2018-06-04T12:56:32.362Z,101382.08
2018-06-04T12:59:01.788Z,101379.09
2018-06-04T13:01:30.970Z,101380.03
2018-06-04T13:04:00.127Z,101379.09
2018-06-04T13:06:29.419Z,101373.50
2018-06-04T13:08:58.266Z,101373.45
2018-06-04T13:11:27.542Z,101370.45
2018-06-04T13:13:56.999Z,101373.80
2018-06-04T13:16:26.602Z,101366.04
2018-06-04T13:18:55.700Z,101364.30
2018-06-04T13:21:24.761Z,101365.98
2018-06-04T13:23:53.968Z,101370.11
2018-06-04T13:26:22.831Z,101369.23
2018-06-04T13:28:52.604Z,101365.33
2018-06-04T13:31:22.005Z,101363.42
2018-06-04T13:33:51.406Z,101358.58
2018-06-04T13:36:20.252Z,101354.36
2018-06-04T13:38:49.510Z,101359.14
2018-06-04T13:41:18.381Z,101358.72
2018-06-04T13:43:47.902Z,101356.53
2018-06-04T13:46:17.387Z,101349.42
2018-06-04T13:48:46.268Z,101351.59
2018-06-04T13:51:15.598Z,101356.68
2018-06-04T13:53:44.555Z,101354.72
2018-06-04T13:56:13.784Z,101350.08
2018-06-04T13:58:43.106Z,101348.11
2018-06-04T14:01:12.300Z,101352.48
2018-06-04T14:03:41.183Z,101348.13
2018-06-04T14:06:10.117Z,101341.56
2018-06-04T14:08:39.361Z,101348.08
2018-06-04T14:11:08.483Z,101343.67
2018-06-04T14:13:38.647Z,101338.16
2018-06-04T14:16:08.086Z,101344.67
2018-06-04T14:18:37.240Z,101348.16
2018-06-04T14:21:06.319Z,101341.92
2018-06-04T14:23:35.535Z,101342.93
2018-06-04T14:26:04.815Z,101338.94
2018-06-04T14:28:34.153Z,101335.26
2018-06-04T14:31:03.556Z,101332.19
2018-06-04T14:33:32.849Z,101336.73
2018-06-04T14:36:02.125Z,101327.16
2018-06-04T14:38:31.206Z,101327.59
2018-06-04T14:41:00.797Z,101326.62
2018-06-04T14:43:30.361Z,101319.38
2018-06-04T14:45:59.564Z,101320.95
2018-06-04T14:48:28.559Z,101319.05
2018-06-04T14:50:58.128Z,101320.20
2018-06-04T14:53:27.327Z,101319.00
2018-06-04T14:55:56.759Z,101320.03
2018-06-04T14:58:27.513Z,101320.94
2018-06-04T15:00:56.888Z,101317.86
2018-06-04T15:03:26.248Z,101316.94
2018-06-04T15:05:55.666Z,101317.23
2018-06-04T15:08:25.091Z,101326.69
2018-06-04T15:10:54.490Z,101319.81
2018-06-04T15:13:23.491Z,101313.98
2018-06-04T15:15:52.815Z,101321.72
2018-06-04T15:18:21.758Z,101319.30
2018-06-04T15:20:51.146Z,101312.09
2018-06-04T15:23:20.467Z,101315.53
2018-06-04T15:25:49.642Z,101311.67
2018-06-04T15:28:19.221Z,101317.14
2018-06-04T15:30:48.852Z,101316.31
2018-06-04T15:33:18.124Z,101315.55
2018-06-04T15:35:47.058Z,101310.89
2018-06-04T15:38:16.688Z,101313.11
2018-06-04T15:40:45.756Z,101308.98
2018-06-04T15:43:15.269Z,101304.63
2018-06-04T15:45:44.972Z,101301.66
2018-06-04T15:48:14.056Z,101299.84
2018-06-04T15:50:43.086Z,101297.09
2018-06-04T15:53:12.175Z,101294.48
2018-06-04T15:55:41.217Z,101294.12
2018-06-04T15:58:10.376Z,101295.80
2018-06-04T16:00:39.960Z,101290.30
2018-06-04T16:03:09.549Z,101288.11
2018-06-04T16:05:39.301Z,101288.88
2018-06-04T16:08:08.389Z,101283.02
2018-06-04T16:10:37.574Z,101287.08
2018-06-04T16:13:06.819Z,101282.03
2018-06-04T16:15:36.015Z,101284.33
2018-06-04T16:18:04.997Z,101283.90
2018-06-04T16:20:35.984Z,101288.55
2018-06-04T16:23:07.064Z,101279.88
2018-06-04T16:25:36.376Z,101286.62
2018-06-04T16:28:05.873Z,101283.54
2018-06-04T16:30:35.588Z,101280.13
2018-06-04T16:33:05.284Z,101274.30
2018-06-04T16:35:35.094Z,101267.69
2018-06-04T16:38:04.797Z,101270.92
2018-06-04T16:40:34.484Z,101272.66
2018-06-04T16:43:03.817Z,101266.93
2018-06-04T16:45:33.209Z,101268.89
2018-06-04T16:48:02.522Z,101264.31
2018-06-04T16:50:32.121Z,101263.52
2018-06-04T16:53:01.468Z,101262.30
2018-06-04T16:55:30.721Z,101263.67
2018-06-04T16:57:59.758Z,101265.77
2018-06-04T17:00:29.055Z,101265.34
2018-06-04T17:02:58.921Z,101269.71
2018-06-04T17:05:28.398Z,101258.16
2018-06-04T17:07:57.704Z,101262.86
2018-06-04T17:10:27.457Z,101258.77
2018-06-04T17:12:56.847Z,101255.45
2018-06-04T17:15:26.564Z,101258.55
2018-06-04T17:17:55.821Z,101251.09
2018-06-04T17:20:25.587Z,101253.28
2018-06-04T17:22:54.783Z,101248.58
2018-06-04T17:25:24.320Z,101245.83
2018-06-04T17:27:53.352Z,101241.53
2018-06-04T17:30:22.442Z,101236.28
2018-06-04T17:32:51.640Z,101238.67
2018-06-04T17:35:20.972Z,101232.04
2018-06-04T17:37:50.079Z,101238.91
2018-06-04T17:40:19.564Z,101234.33
2018-06-04T17:42:52.912Z,101230.56
2018-06-04T17:45:21.799Z,101223.27
2018-06-04T17:47:50.627Z,101229.66
2018-06-04T17:50:19.794Z,101230.14
2018-06-04T17:52:49.118Z,101235.76
2018-06-04T17:55:17.986Z,101237.14
2018-06-04T17:57:47.072Z,101241.74
2018-06-04T18:00:16.263Z,101232.25
2018-06-04T18:02:45.159Z,101234.81
2018-06-04T18:05:14.065Z,101230.23
2018-06-04T18:07:43.109Z,101229.44
2018-06-04T18:10:12.388Z,101243.87
2018-06-04T18:12:41.257Z,101239.45
2018-06-04T18:15:10.694Z,101240.71
2018-06-04T18:17:40.075Z,101233.18
2018-06-04T18:20:09.146Z,101234.79
2018-06-04T18:22:38.332Z,101238.44
2018-06-04T18:25:07.443Z,101236.39
2018-06-04T18:27:36.766Z,101234.32
2018-06-04T18:30:05.701Z,101229.06
2018-06-04T18:32:35.495Z,101225.30
2018-06-04T18:35:05.194Z,101224.72
2018-06-04T18:37:34.431Z,101228.05
2018-06-04T18:40:04.343Z,101227.34
2018-06-04T18:42:33.884Z,101232.83
2018-06-04T18:45:03.376Z,101230.91
2018-06-04T18:47:32.380Z,101233.19
2018-06-04T18:50:01.325Z,101233.30
2018-06-04T18:52:30.795Z,101236.83
2018-06-04T18:55:00.025Z,101235.58
2018-06-04T18:57:29.440Z,101233.19
2018-06-04T18:59:59.254Z,101236.39
2018-06-04T19:02:29.363Z,101237.53
2018-06-04T19:04:59.083Z,101236.86
2018-06-04T19:07:28.305Z,101239.84
2018-06-04T19:09:58.102Z,101236.86
2018-06-04T19:12:27.366Z,101238.11
2018-06-04T19:14:57.037Z,101237.64
2018-06-04T19:17:26.877Z,101238.22
2018-06-04T19:19:55.986Z,101242.69
2018-06-04T19:22:25.416Z,101243.50
2018-06-04T19:24:55.269Z,101247.73
2018-06-04T19:27:24.240Z,101249.54
2018-06-04T19:29:53.337Z,101249.54
2018-06-04T19:32:22.717Z,101248.28
2018-06-04T19:34:51.865Z,101249.89
2018-06-04T19:37:20.817Z,101256.74
2018-06-04T19:39:50.017Z,101258.46
2018-06-04T19:42:19.520Z,101275.38
2018-06-04T19:44:48.957Z,101272.97
2018-06-04T19:47:18.144Z,101271.95
2018-06-04T19:49:47.364Z,101276.84
2018-06-04T19:52:16.257Z,101276.41
2018-06-04T19:54:45.558Z,101275.25
2018-06-04T19:57:15.155Z,101281.89
2018-06-04T19:59:44.617Z,101284.87
2018-06-04T20:02:13.968Z,101282.33
2018-06-04T20:04:43.274Z,101290.33
2018-06-04T20:07:12.614Z,101291.70
2018-06-04T20:09:41.573Z,101296.05
2018-06-04T20:12:11.442Z,101292.16
2018-06-04T20:14:40.386Z,101295.13
2018-06-04T20:17:09.878Z,101290.09
2018-06-04T20:19:38.788Z,101293.31
2018-06-04T20:22:08.993Z,101291.81
2018-06-04T20:24:38.269Z,101294.90
2018-06-04T20:27:07.398Z,101291.92
2018-06-04T20:29:36.845Z,101289.53
2018-06-04T20:32:06.182Z,101288.50
2018-06-04T20:34:35.342Z,101289.97
2018-06-04T20:37:04.839Z,101296.48
2018-06-04T20:39:34.196Z,101297.28
2018-06-04T20:42:03.640Z,101298.08
2018-06-04T20:44:32.603Z,101299.42
2018-06-04T20:47:01.741Z,101305.72
2018-06-04T20:49:31.357Z,101298.16
2018-06-04T20:52:00.642Z,101296.90
2018-06-04T20:54:29.819Z,101302.83
2018-06-04T20:57:00.432Z,101304.20
2018-06-04T20:59:29.478Z,101303.96
2018-06-04T21:01:58.437Z,101304.06
2018-06-04T21:04:28.361Z,101303.04
2018-06-04T21:06:57.678Z,101308.76
2018-06-04T21:09:27.414Z,101309.99
2018-06-04T21:11:58.257Z,101306.91
2018-06-04T21:14:28.180Z,101309.66
2018-06-04T21:16:58.437Z,101311.84
2018-06-04T21:19:28.306Z,101306.02
2018-06-04T21:21:58.575Z,101308.76
2018-06-04T21:24:28.724Z,101299.17
2018-06-04T21:26:58.025Z,101295.84
2018-06-04T21:29:27.261Z,101302.15
2018-06-04T21:31:57.240Z,101298.59
2018-06-04T21:34:26.520Z,101301.56
2018-06-04T21:36:56.737Z,101314.69
2018-06-04T21:39:25.857Z,101310.81
2018-06-04T21:41:55.023Z,101310.36
2018-06-04T21:44:23.874Z,101310.60
2018-06-04T21:46:53.961Z,101317.45
2018-06-04T21:49:23.474Z,101320.53
2018-06-04T21:51:52.640Z,101317.66
2018-06-04T21:54:23.701Z,101318.14
2018-06-04T21:56:52.858Z,101316.77
2018-06-04T21:59:25.864Z,101306.94
2018-06-04T22:01:55.298Z,101315.50
2018-06-04T22:04:24.391Z,101309.09
2018-06-04T22:06:55.840Z,101315.40
2018-06-04T22:09:24.764Z,101312.66
2018-06-04T22:11:53.892Z,101316.88
2018-06-04T22:14:23.393Z,101319.38
2018-06-04T22:16:52.372Z,101320.98
2018-06-04T22:19:21.195Z,101320.06
2018-06-04T22:21:50.376Z,101313.92
2018-06-04T22:24:19.760Z,101314.47
2018-06-04T22:26:49.008Z,101320.98
2018-06-04T22:29:17.897Z,101320.33
2018-06-04T22:31:46.769Z,101317.79
2018-06-04T22:34:15.683Z,101317.00
2018-06-04T22:36:44.500Z,101317.00
2018-06-04T22:39:13.308Z,101316.22
2018-06-04T22:41:42.388Z,101322.93
2018-06-04T22:44:11.475Z,101324.88
2018-06-04T22:46:40.429Z,101325.67
2018-06-04T22:49:09.280Z,101325.67
2018-06-04T22:51:38.136Z,101330.23
2018-06-04T22:54:07.381Z,101330.02
2018-06-04T22:56:36.578Z,101336.29
2018-06-04T22:59:06.721Z,101333.55
2018-06-04T23:01:35.844Z,101332.52
2018-06-04T23:04:04.997Z,101328.66
2018-06-04T23:06:34.076Z,101330.02
2018-06-04T23:09:03.266Z,101334.13
2018-06-04T23:11:32.700Z,101323.72
2018-06-04T23:14:01.973Z,101329.20
2018-06-04T23:16:31.094Z,101329.44
2018-06-04T23:19:00.059Z,101319.72
2018-06-04T23:21:29.645Z,101323.48
2018-06-04T23:23:58.591Z,101320.16
2018-06-04T23:26:27.911Z,101317.22
2018-06-04T23:28:57.447Z,101319.72
2018-06-04T23:31:26.683Z,101328.72
2018-06-04T23:33:56.716Z,101327.02
2018-06-04T23:36:25.641Z,101330.33
2018-06-04T23:38:54.503Z,101327.02
2018-06-04T23:41:23.433Z,101318.14
2018-06-04T23:43:52.878Z,101322.02
2018-06-04T23:46:22.514Z,101325.54
2018-06-04T23:48:51.357Z,101323.28
2018-06-04T23:51:20.338Z,101312.86
2018-06-04T23:53:49.746Z,101313.80
2018-06-04T23:56:18.643Z,101314.13
2018-06-04T23:58:47.925Z,101318.90
